KOGB/OGB METAR and TAF weather

Enter ICAO airport designator
Station Type Date Time Source
KOGB METAR 2019/08/19 08:53 UTC NOAA

KOGB 190853Z AUTO 19003KT 10SM FEW011 23/22 A3005 RMK AO2 SLP172 T02280217 53000


Station Type Date Time Source
KOGB Decoded METAR 2019/08/19 08:53 UTC NOAA

Station name not available
Aug 19, 2019 - 04:53 AM EDT / 2019.08.19 0853 UTC
Wind: from the S (190 degrees) at 3 MPH (3 KT):0
Visibility: 10 mile(s):0
Sky conditions: mostly clear
Temperature: 73.0 F (22.8 C)
Dew Point: 71.1 F (21.7 C)
Relative Humidity: 93%
Pressure (altimeter): 30.05 in. Hg (1017 hPa)
Pressure tendency: 0.00 inches (0.0 hPa) higher than three hours ago
ob: KOGB 190853Z AUTO 19003KT 10SM FEW011 23/22 A3005 RMK AO2 SLP172 T02280217 53000
cycle: 9

Station Type Date Time Source
KOGB TAF 2019/08/19 08:24 UTC NOAA

TAF
AMD KOGB 190823Z 1908/2006 22003KT P6SM OVC012
TEMPO 1911/1914 OVC008
FM191500 18006KT P6SM VCTS SCT050CB SCT250
FM200200 18003KT P6SM BKN150

Example: see airport list